createdAt,value
2023-04-15T00:01:20.110Z,100532.72
2023-04-15T00:03:49.332Z,100528.09
2023-04-15T00:06:21.383Z,100509.91
2023-04-15T00:08:51.498Z,100519.56
2023-04-15T00:11:20.839Z,100526.28
2023-04-15T00:13:50.140Z,100544.53
2023-04-15T00:16:19.048Z,100528.88
2023-04-15T00:18:47.720Z,100563.63
2023-04-15T00:21:16.820Z,100537.47
2023-04-15T00:23:45.862Z,100509.50
2023-04-15T00:26:14.999Z,100516.72
2023-04-15T00:28:45.338Z,100540.16
2023-04-15T00:31:14.067Z,100545.53
2023-04-15T00:33:43.021Z,100555.94
2023-04-15T00:36:12.060Z,100516.94
2023-04-15T00:38:40.705Z,100537.75
2023-04-15T00:41:11.242Z,100494.25
2023-04-15T00:43:39.996Z,100519.59
2023-04-15T00:46:10.283Z,100510.22
2023-04-15T00:48:39.719Z,100522.44
2023-04-15T00:51:08.488Z,100541.50
2023-04-15T00:53:37.118Z,100429.28
2023-04-15T00:56:06.963Z,100514.59
2023-04-15T00:58:35.800Z,100539.75
2023-04-15T01:01:05.315Z,100494.78
2023-04-15T01:03:34.624Z,100523.19
2023-04-15T01:06:04.663Z,100549.75
2023-04-15T01:08:33.921Z,100561.88
2023-04-15T01:11:06.480Z,100563.75
2023-04-15T01:13:38.677Z,100440.66
2023-04-15T01:16:09.612Z,100543.56
2023-04-15T01:18:39.386Z,100551.28
2023-04-15T01:21:08.684Z,100567.03
2023-04-15T01:23:40.497Z,100559.44
2023-04-15T01:26:12.828Z,100602.47
2023-04-15T01:28:41.517Z,100599.75
2023-04-15T01:31:15.376Z,100588.75
2023-04-15T01:33:44.594Z,100565.59
2023-04-15T01:36:16.106Z,100575.41
2023-04-15T01:38:44.904Z,100556.81
2023-04-15T01:41:17.324Z,100424.25
2023-04-15T01:43:46.423Z,100486.34
2023-04-15T01:46:15.316Z,100488.00
2023-04-15T01:48:46.905Z,100505.19
2023-04-15T01:51:15.622Z,100463.94
2023-04-15T01:53:44.223Z,100421.84
2023-04-15T01:56:15.293Z,100429.50
2023-04-15T01:58:45.629Z,100464.47
2023-04-15T02:01:14.438Z,100493.91
2023-04-15T02:03:43.478Z,100475.75
2023-04-15T02:06:12.272Z,100458.41
2023-04-15T02:08:41.955Z,100470.84
2023-04-15T02:11:11.018Z,100446.13
2023-04-15T02:13:40.295Z,100475.50
2023-04-15T02:16:20.378Z,100382.19
2023-04-15T02:18:49.170Z,100388.38
2023-04-15T02:21:17.826Z,100498.63
2023-04-15T02:23:48.901Z,100455.66
2023-04-15T02:26:18.267Z,100494.28
2023-04-15T02:28:49.013Z,100486.78
2023-04-15T02:31:18.556Z,100444.25
2023-04-15T02:33:47.327Z,100457.44
2023-04-15T02:36:16.478Z,100350.84
2023-04-15T02:38:45.708Z,100461.84
2023-04-15T02:41:16.164Z,100434.41
2023-04-15T02:43:47.006Z,100482.00
2023-04-15T02:46:19.707Z,100465.69
2023-04-15T02:48:50.557Z,100445.03
2023-04-15T02:51:24.722Z,100490.91
2023-04-15T02:53:54.689Z,100445.06
2023-04-15T02:56:24.346Z,100492.44
2023-04-15T02:58:56.982Z,100479.38
2023-04-15T03:01:25.612Z,100484.50
2023-04-15T03:03:55.751Z,100501.81
2023-04-15T03:06:25.394Z,100503.53
2023-04-15T03:08:54.041Z,100527.13
2023-04-15T03:11:23.909Z,100483.22
2023-04-15T03:13:52.768Z,100504.50
2023-04-15T03:16:33.266Z,100526.41
2023-04-15T03:19:02.477Z,100501.53
2023-04-15T03:21:32.264Z,100491.31
2023-04-15T03:24:01.612Z,100494.66
2023-04-15T03:26:32.304Z,100453.19
2023-04-15T03:29:04.109Z,100493.19
2023-04-15T03:31:35.467Z,100492.47
2023-04-15T03:34:04.190Z,100476.16
2023-04-15T03:36:35.505Z,100475.38
2023-04-15T03:39:04.926Z,100442.50
2023-04-15T03:41:33.772Z,100464.06
2023-04-15T03:44:02.630Z,100445.72
2023-04-15T03:46:31.484Z,100442.22
2023-04-15T03:49:00.832Z,100435.25
2023-04-15T03:51:29.927Z,100427.56
2023-04-15T03:53:59.427Z,100478.78
2023-04-15T03:56:28.207Z,100446.88
2023-04-15T03:58:56.952Z,100466.13
2023-04-15T04:01:25.779Z,100333.41
2023-04-15T04:03:54.482Z,100479.00
2023-04-15T04:06:23.462Z,100464.31
2023-04-15T04:08:52.077Z,100468.00
2023-04-15T04:11:21.740Z,100483.59
2023-04-15T04:13:50.599Z,100485.16
2023-04-15T04:16:19.255Z,100506.84
2023-04-15T04:18:47.902Z,100440.19
2023-04-15T04:21:17.028Z,100481.78
2023-04-15T04:23:45.860Z,100484.22
2023-04-15T04:26:14.592Z,100507.72
2023-04-15T04:28:43.223Z,100519.00
2023-04-15T04:31:12.064Z,100507.69
2023-04-15T04:33:41.238Z,100539.97
2023-04-15T04:36:09.662Z,100488.16
2023-04-15T04:38:38.457Z,100415.50
2023-04-15T04:41:07.088Z,100522.16
2023-04-15T04:43:35.876Z,100513.50
2023-04-15T04:46:04.486Z,100489.13
2023-04-15T04:48:33.381Z,100473.59
2023-04-15T04:51:02.246Z,100504.00
2023-04-15T04:53:31.014Z,100541.16
2023-04-15T04:55:59.559Z,100501.34
2023-04-15T04:58:28.865Z,100527.31
2023-04-15T05:00:58.268Z,100519.56
2023-04-15T05:03:27.626Z,100516.09
2023-04-15T05:05:56.708Z,100484.19
2023-04-15T05:08:25.893Z,100497.25
2023-04-15T05:10:55.015Z,100491.97
2023-04-15T05:13:26.617Z,100479.91
2023-04-15T05:15:55.415Z,100455.69
2023-04-15T05:18:27.114Z,100447.06
2023-04-15T05:20:55.788Z,100448.75
2023-04-15T05:23:24.687Z,100485.06
2023-04-15T05:25:53.331Z,100386.44
2023-04-15T05:28:22.677Z,100433.19
2023-04-15T05:30:52.317Z,100468.66
2023-04-15T05:33:21.028Z,100478.25
2023-04-15T05:35:50.549Z,100474.81
2023-04-15T05:38:19.154Z,100474.81
2023-04-15T05:40:48.363Z,100473.94
2023-04-15T05:43:17.408Z,100485.19
2023-04-15T05:45:46.759Z,100353.72
2023-04-15T05:48:15.609Z,100458.38
2023-04-15T05:50:44.449Z,100503.38
2023-04-15T05:53:13.190Z,100484.31
2023-04-15T05:55:41.997Z,100481.72
2023-04-15T05:58:12.246Z,100455.75
2023-04-15T06:00:41.912Z,100474.81
2023-04-15T06:03:12.747Z,100485.19
2023-04-15T06:05:41.410Z,100466.16
2023-04-15T06:08:10.517Z,100479.13
2023-04-15T06:10:39.449Z,100461.75
2023-04-15T06:13:09.452Z,100472.94
2023-04-15T06:15:38.540Z,100483.25
2023-04-15T06:18:07.905Z,100448.66
2023-04-15T06:20:37.305Z,100469.47
2023-04-15T06:23:06.109Z,100466.00
2023-04-15T06:25:35.349Z,100440.00
2023-04-15T06:28:07.201Z,100442.53
2023-04-15T06:30:37.503Z,100459.03
2023-04-15T06:33:07.101Z,100452.19
2023-04-15T06:35:36.268Z,100437.53
2023-04-15T06:38:05.067Z,100455.66
2023-04-15T06:40:34.470Z,100373.44
2023-04-15T06:43:03.445Z,100367.22
2023-04-15T06:45:34.518Z,100458.81
2023-04-15T06:48:03.393Z,100432.06
2023-04-15T06:50:32.285Z,100421.72
2023-04-15T06:53:00.969Z,100419.09
2023-04-15T06:55:29.686Z,100460.59
2023-04-15T06:58:01.008Z,100419.00
2023-04-15T07:00:30.061Z,100418.78
2023-04-15T07:02:58.975Z,100434.38
2023-04-15T07:05:28.602Z,100433.47
2023-04-15T07:07:58.017Z,100423.94
2023-04-15T07:10:26.936Z,100398.78
2023-04-15T07:12:55.836Z,100350.72
2023-04-15T07:15:24.649Z,100380.22
2023-04-15T07:17:53.719Z,100314.97
2023-04-15T07:20:22.814Z,100383.97
2023-04-15T07:22:51.544Z,100382.06
2023-04-15T07:25:20.558Z,100397.06
2023-04-15T07:27:49.383Z,100380.53
2023-04-15T07:30:18.277Z,100364.03
2023-04-15T07:32:47.619Z,100353.47
2023-04-15T07:35:16.491Z,100377.56
2023-04-15T07:37:45.472Z,100354.31
2023-04-15T07:40:15.432Z,100337.00
2023-04-15T07:42:44.266Z,100316.16
2023-04-15T07:45:16.658Z,100331.59
2023-04-15T07:47:47.636Z,100251.13
2023-04-15T07:50:17.071Z,100339.75
2023-04-15T07:52:45.945Z,100334.88
2023-04-15T07:55:14.688Z,100327.84
2023-04-15T07:57:43.536Z,100326.91
2023-04-15T08:00:13.000Z,100312.16
2023-04-15T08:02:43.703Z,100309.00
2023-04-15T08:05:12.425Z,100311.44
2023-04-15T08:07:41.797Z,100298.44
2023-04-15T08:10:11.056Z,100293.44
2023-04-15T08:12:40.087Z,100222.69
2023-04-15T08:15:09.831Z,100285.50
2023-04-15T08:17:38.462Z,100316.41
2023-04-15T08:20:07.603Z,100286.75
2023-04-15T08:22:36.491Z,100272.97
2023-04-15T08:25:05.426Z,100266.84
2023-04-15T08:27:34.226Z,100272.53
2023-04-15T08:30:05.108Z,100232.53
2023-04-15T08:32:34.071Z,100278.72
2023-04-15T08:35:02.935Z,100292.56
2023-04-15T08:37:31.828Z,100287.97
2023-04-15T08:40:00.604Z,100260.88
2023-04-15T08:42:33.473Z,100250.59
2023-04-15T08:45:05.148Z,100229.00
2023-04-15T08:47:39.633Z,100234.03
2023-04-15T08:50:14.426Z,100207.44
2023-04-15T08:52:43.304Z,100261.72
2023-04-15T08:55:14.570Z,100250.03
2023-04-15T08:57:43.441Z,100243.00
2023-04-15T09:00:13.332Z,100240.88
2023-04-15T09:02:42.922Z,100236.56
2023-04-15T09:05:11.953Z,100244.28
2023-04-15T09:07:43.779Z,100219.03
2023-04-15T09:10:12.903Z,100162.53
2023-04-15T09:12:41.796Z,100159.84
2023-04-15T09:15:13.896Z,100223.56
2023-04-15T09:17:46.973Z,100223.84
2023-04-15T09:20:21.913Z,100248.06
2023-04-15T09:22:51.838Z,100244.66
2023-04-15T09:25:32.176Z,100228.81
2023-04-15T09:28:04.929Z,100244.91
2023-04-15T09:30:33.708Z,100233.03
2023-04-15T09:33:05.567Z,100213.22
2023-04-15T09:35:34.817Z,100248.59
2023-04-15T09:38:08.985Z,100216.56
2023-04-15T09:40:40.278Z,100213.59
2023-04-15T09:43:13.772Z,100212.06
2023-04-15T09:45:50.256Z,100215.91
2023-04-15T09:48:27.951Z,100223.59
2023-04-15T09:51:01.050Z,100221.09
2023-04-15T09:53:31.849Z,100221.16
2023-04-15T09:56:04.114Z,100216.69
2023-04-15T09:58:35.590Z,100219.44
2023-04-15T10:01:06.924Z,100228.97
2023-04-15T10:03:39.444Z,100213.31
2023-04-15T10:06:09.024Z,100245.25
2023-04-15T10:08:40.373Z,100231.59
2023-04-15T10:11:09.426Z,100242.22
2023-04-15T10:13:39.756Z,100231.81
2023-04-15T10:16:11.654Z,100228.41
2023-04-15T10:18:45.743Z,100250.72
2023-04-15T10:21:19.281Z,100250.69
2023-04-15T10:23:48.664Z,100243.00
2023-04-15T10:26:18.517Z,100222.38
2023-04-15T10:28:50.287Z,100251.69
2023-04-15T10:31:20.865Z,100234.38
2023-04-15T10:33:50.870Z,100254.03
2023-04-15T10:36:21.473Z,100249.66
2023-04-15T10:38:50.196Z,100234.16
2023-04-15T10:41:24.721Z,100241.25
2023-04-15T10:44:01.099Z,100208.28
2023-04-15T10:46:41.596Z,100247.22
2023-04-15T10:49:17.301Z,100250.84
2023-04-15T10:51:51.999Z,100153.28
2023-04-15T10:54:26.528Z,100254.31
2023-04-15T10:57:07.342Z,100249.16
2023-04-15T11:00:00.256Z,100171.53
2023-04-15T11:02:54.007Z,100254.03
2023-04-15T11:05:43.974Z,100259.25
2023-04-15T11:08:13.997Z,100256.78
2023-04-15T11:10:42.771Z,100255.78
2023-04-15T11:13:11.829Z,100250.44
2023-04-15T11:15:42.458Z,100240.00
2023-04-15T11:18:42.256Z,100222.75
2023-04-15T11:21:11.094Z,100213.38
2023-04-15T11:23:44.849Z,100233.44
2023-04-15T11:26:13.907Z,100235.38
2023-04-15T11:28:46.599Z,100220.75
2023-04-15T11:31:17.153Z,100113.97
2023-04-15T11:34:00.897Z,100161.28
2023-04-15T11:36:32.566Z,100223.31
2023-04-15T11:39:01.805Z,100235.19
2023-04-15T11:41:30.739Z,100215.19
2023-04-15T11:43:59.570Z,100215.25
2023-04-15T11:46:32.799Z,100230.94
2023-04-15T11:49:01.682Z,100237.06
2023-04-15T11:51:34.757Z,100243.09
2023-04-15T11:54:04.533Z,100221.53
2023-04-15T11:56:33.574Z,100243.09
2023-04-15T11:59:02.812Z,100240.56
2023-04-15T12:01:47.306Z,100212.16
2023-04-15T12:04:25.492Z,100247.47
2023-04-15T12:06:54.912Z,100207.72
2023-04-15T12:09:23.628Z,100241.28
2023-04-15T12:11:56.189Z,100149.88
2023-04-15T12:14:32.295Z,100241.22
2023-04-15T12:17:05.656Z,100088.03
2023-04-15T12:19:39.358Z,100221.34
2023-04-15T12:22:11.590Z,100237.78
2023-04-15T12:24:41.170Z,100204.25
2023-04-15T12:27:13.191Z,100229.25
2023-04-15T12:29:44.061Z,100226.69
2023-04-15T12:32:17.154Z,100238.94
2023-04-15T12:34:51.681Z,100244.41
2023-04-15T12:37:20.474Z,100250.50
2023-04-15T12:39:51.305Z,100250.53
2023-04-15T12:42:20.216Z,100222.09
2023-04-15T12:44:48.896Z,100219.47
2023-04-15T12:47:17.867Z,100218.66
2023-04-15T12:49:46.601Z,100223.91
2023-04-15T12:52:15.898Z,100254.22
2023-04-15T12:54:47.275Z,100252.50
2023-04-15T12:57:16.007Z,100213.59
2023-04-15T12:59:44.962Z,100198.03
2023-04-15T13:02:14.517Z,100160.16
2023-04-15T13:04:43.599Z,100229.19
2023-04-15T13:07:14.726Z,100237.09
2023-04-15T13:09:43.762Z,100249.28
2023-04-15T13:12:14.442Z,100222.59
2023-04-15T13:14:43.464Z,100256.22
2023-04-15T13:17:12.368Z,100244.22
2023-04-15T13:19:41.323Z,100230.44
2023-04-15T13:22:10.220Z,100231.38
2023-04-15T13:24:40.161Z,100240.03
2023-04-15T13:27:09.179Z,100237.47
2023-04-15T13:29:38.574Z,100257.38
2023-04-15T13:32:07.866Z,100259.91
2023-04-15T13:34:36.819Z,100242.69
2023-04-15T13:37:09.891Z,100252.19
2023-04-15T13:39:38.845Z,100234.19
2023-04-15T13:42:10.189Z,100268.75
2023-04-15T13:44:39.381Z,100240.31
2023-04-15T13:47:08.473Z,100237.78
2023-04-15T13:49:37.139Z,100257.69
2023-04-15T13:52:05.889Z,100187.06
2023-04-15T13:54:37.044Z,100235.31
2023-04-15T13:57:07.856Z,100256.13
2023-04-15T13:59:37.101Z,100237.19
2023-04-15T14:02:06.094Z,100182.03
2023-04-15T14:04:34.927Z,100257.97
2023-04-15T14:07:06.701Z,100281.38
2023-04-15T14:09:36.503Z,100244.31
2023-04-15T14:12:05.781Z,100259.91
2023-04-15T14:14:34.396Z,100273.75
2023-04-15T14:17:05.046Z,100272.03
2023-04-15T14:19:37.004Z,100271.22
2023-04-15T14:22:05.728Z,100279.03
2023-04-15T14:24:34.638Z,100279.06
2023-04-15T14:27:04.165Z,100284.28
2023-04-15T14:29:33.106Z,100294.66
2023-04-15T14:32:04.503Z,100244.66
2023-04-15T14:34:41.721Z,100293.88
2023-04-15T14:37:10.731Z,100297.34
2023-04-15T14:39:39.693Z,100308.59
2023-04-15T14:42:08.381Z,100306.91
2023-04-15T14:44:37.191Z,100293.09
2023-04-15T14:47:06.645Z,100314.69
2023-04-15T14:49:35.285Z,100288.81
2023-04-15T14:52:04.155Z,100298.34
2023-04-15T14:54:33.035Z,100303.53
2023-04-15T14:57:02.887Z,100298.34
2023-04-15T14:59:31.873Z,100302.69
2023-04-15T15:02:00.960Z,100281.94
2023-04-15T15:04:30.758Z,100327.75
2023-04-15T15:07:02.160Z,100300.13
2023-04-15T15:09:30.869Z,100335.56
2023-04-15T15:11:59.672Z,100337.31
2023-04-15T15:14:28.597Z,100321.72
2023-04-15T15:16:59.754Z,100291.47
2023-04-15T15:19:28.453Z,100314.81
2023-04-15T15:21:57.370Z,100327.78
2023-04-15T15:24:26.228Z,100227.53
2023-04-15T15:26:55.188Z,100332.09
2023-04-15T15:29:24.551Z,100338.16
2023-04-15T15:31:53.347Z,100345.06
2023-04-15T15:34:22.118Z,100354.56
2023-04-15T15:36:51.044Z,100344.22
2023-04-15T15:39:19.913Z,100349.38
2023-04-15T15:41:48.590Z,100352.84
2023-04-15T15:44:17.632Z,100317.41
2023-04-15T15:46:46.334Z,100338.16
2023-04-15T15:49:15.267Z,100352.84
2023-04-15T15:51:44.473Z,100332.09
2023-04-15T15:54:13.282Z,100335.53
2023-04-15T15:56:42.843Z,100361.50
2023-04-15T15:59:11.914Z,100332.94
2023-04-15T16:01:40.938Z,100363.22
2023-04-15T16:04:09.864Z,100345.91
2023-04-15T16:06:38.946Z,100332.06
2023-04-15T16:09:07.755Z,100333.81
2023-04-15T16:11:36.803Z,100327.75
2023-04-15T16:14:05.951Z,100345.88
2023-04-15T16:16:35.879Z,100255.09
2023-04-15T16:19:05.128Z,100328.59
2023-04-15T16:21:35.160Z,100341.56
2023-04-15T16:24:04.364Z,100256.81
2023-04-15T16:26:33.419Z,100259.41
2023-04-15T16:29:02.851Z,100261.97
2023-04-15T16:31:32.004Z,100336.31
2023-04-15T16:34:00.784Z,100337.19
2023-04-15T16:36:30.147Z,100313.81
2023-04-15T16:38:59.147Z,100360.50
2023-04-15T16:41:28.752Z,100344.94
2023-04-15T16:43:59.561Z,100327.59
2023-04-15T16:46:30.474Z,100338.81
2023-04-15T16:48:59.282Z,100330.09
2023-04-15T16:51:31.256Z,100329.22
2023-04-15T16:54:00.139Z,100340.44
2023-04-15T16:56:29.984Z,100335.22
2023-04-15T16:58:59.138Z,100340.34
2023-04-15T17:01:27.982Z,100349.00
2023-04-15T17:03:57.372Z,100349.81
2023-04-15T17:06:27.479Z,100329.91
2023-04-15T17:08:56.327Z,100296.09
2023-04-15T17:11:25.241Z,100316.84
2023-04-15T17:13:54.331Z,100342.81
2023-04-15T17:16:23.515Z,100336.72
2023-04-15T17:18:52.688Z,100328.91
2023-04-15T17:21:22.379Z,100344.38
2023-04-15T17:23:52.187Z,100346.88
2023-04-15T17:26:21.462Z,100326.09
2023-04-15T17:28:50.642Z,100331.22
2023-04-15T17:31:19.380Z,100347.59
2023-04-15T17:34:03.588Z,100313.75
2023-04-15T17:36:37.320Z,100339.63
2023-04-15T17:39:06.774Z,100340.44
2023-04-15T17:41:35.872Z,100338.66
2023-04-15T17:44:04.953Z,100304.06
2023-04-15T17:46:34.217Z,100246.78
2023-04-15T17:49:04.258Z,100344.59
2023-04-15T17:51:33.799Z,100310.81
2023-04-15T17:54:09.160Z,100317.75
2023-04-15T17:56:38.339Z,100315.09
2023-04-15T17:59:10.666Z,100237.94
2023-04-15T18:01:39.342Z,100241.31
2023-04-15T18:04:08.944Z,100312.31
2023-04-15T18:06:38.482Z,100310.56
2023-04-15T18:09:08.011Z,100333.88
2023-04-15T18:11:37.150Z,100329.56
2023-04-15T18:14:07.725Z,100328.69
2023-04-15T18:16:36.809Z,100319.97
2023-04-15T18:19:05.374Z,100339.00
2023-04-15T18:21:34.087Z,100348.47
2023-04-15T18:24:03.633Z,100312.94
2023-04-15T18:26:32.791Z,100305.19
2023-04-15T18:29:01.774Z,100315.56
2023-04-15T18:31:30.570Z,100299.06
2023-04-15T18:33:59.492Z,100317.28
2023-04-15T18:36:28.532Z,100322.47
2023-04-15T18:38:57.313Z,100309.44
2023-04-15T18:41:26.664Z,100299.94
2023-04-15T18:43:56.967Z,100338.06
2023-04-15T18:46:26.063Z,100292.94
2023-04-15T18:48:54.828Z,100192.59
2023-04-15T18:51:23.849Z,100321.69
2023-04-15T18:53:52.624Z,100320.94
2023-04-15T18:56:21.275Z,100280.25
2023-04-15T18:59:09.302Z,100217.84
2023-04-15T19:01:38.643Z,100326.06
2023-04-15T19:04:07.470Z,100226.41
2023-04-15T19:06:36.312Z,100331.16
2023-04-15T19:09:05.418Z,100317.28
2023-04-15T19:11:34.576Z,100289.53
2023-04-15T19:14:03.391Z,100331.88
2023-04-15T19:16:32.187Z,100306.75
2023-04-15T19:19:00.913Z,100297.13
2023-04-15T19:21:31.352Z,100277.09
2023-04-15T19:24:01.322Z,100292.78
2023-04-15T19:26:30.251Z,100302.28
2023-04-15T19:28:59.750Z,100296.28
2023-04-15T19:31:28.524Z,100306.75
2023-04-15T19:33:57.575Z,100330.94
2023-04-15T19:36:28.939Z,100323.13
2023-04-15T19:38:57.756Z,100299.75
2023-04-15T19:41:27.165Z,100306.69
2023-04-15T19:43:56.343Z,100334.38
2023-04-15T19:46:25.622Z,100307.44
2023-04-15T19:48:55.411Z,100301.44
2023-04-15T19:51:24.136Z,100290.97
2023-04-15T19:53:54.713Z,100323.03
2023-04-15T19:56:24.699Z,100282.25
2023-04-15T19:58:56.895Z,100313.34
2023-04-15T20:01:25.817Z,100314.19
2023-04-15T20:03:55.646Z,100301.94
2023-04-15T20:06:24.799Z,100325.28
2023-04-15T20:08:53.406Z,100329.63
2023-04-15T20:11:22.973Z,100306.22
2023-04-15T20:13:51.718Z,100303.63
2023-04-15T20:16:20.614Z,100307.13
2023-04-15T20:18:49.514Z,100302.78
2023-04-15T20:21:18.392Z,100308.03
2023-04-15T20:23:47.233Z,100297.69
2023-04-15T20:26:15.969Z,100205.13
2023-04-15T20:28:44.620Z,100279.66
2023-04-15T20:31:13.572Z,100203.50
2023-04-15T20:33:42.452Z,100197.59
2023-04-15T20:36:11.269Z,100279.06
2023-04-15T20:38:40.189Z,100250.59
2023-04-15T20:41:09.038Z,100282.69
2023-04-15T20:43:37.951Z,100301.81
2023-04-15T20:46:13.921Z,100301.06
2023-04-15T20:48:49.652Z,100190.31
2023-04-15T20:51:18.453Z,100272.53
2023-04-15T20:53:47.359Z,100308.00
2023-04-15T20:56:16.210Z,100276.91
2023-04-15T20:58:44.970Z,100197.31
2023-04-15T21:01:14.451Z,100263.97
2023-04-15T21:03:43.315Z,100287.41
2023-04-15T21:06:12.303Z,100253.63
2023-04-15T21:08:41.074Z,100257.09
2023-04-15T21:11:10.073Z,100218.97
2023-04-15T21:13:38.935Z,100290.72
2023-04-15T21:16:07.759Z,100256.91
2023-04-15T21:18:36.654Z,100274.09
2023-04-15T21:21:06.291Z,100239.47
2023-04-15T21:23:36.800Z,100282.66
2023-04-15T21:26:05.433Z,100267.88
2023-04-15T21:28:34.275Z,100266.94
2023-04-15T21:31:02.852Z,100283.25
2023-04-15T21:33:31.574Z,100261.56
2023-04-15T21:36:00.393Z,100254.59
2023-04-15T21:38:28.995Z,100272.63
2023-04-15T21:40:58.374Z,100256.28
2023-04-15T21:43:27.417Z,100288.25
2023-04-15T21:46:22.952Z,100295.09
2023-04-15T21:48:45.335Z,100290.75
2023-04-15T21:51:14.300Z,100281.22
2023-04-15T21:53:43.077Z,100254.28
2023-04-15T21:56:11.925Z,100252.50
2023-04-15T21:58:40.815Z,100261.00
2023-04-15T22:01:09.645Z,100286.16
2023-04-15T22:03:38.580Z,100280.00
2023-04-15T22:06:08.094Z,100182.00
2023-04-15T22:08:48.329Z,100293.66
2023-04-15T22:11:30.396Z,100279.75
2023-04-15T22:14:00.412Z,100292.72
2023-04-15T22:16:29.554Z,100258.94
2023-04-15T22:18:58.399Z,100270.13
2023-04-15T22:21:27.637Z,100267.50
2023-04-15T22:24:36.706Z,100288.34
2023-04-15T22:26:45.375Z,100277.03
2023-04-15T22:29:14.271Z,100264.06
2023-04-15T22:31:43.170Z,100257.13
2023-04-15T22:34:11.913Z,100270.91
2023-04-15T22:36:40.629Z,100250.09
2023-04-15T22:39:09.410Z,100283.84
2023-04-15T22:41:40.709Z,100260.38
2023-04-15T22:44:09.510Z,100269.84
2023-04-15T22:46:39.247Z,100282.88
2023-04-15T22:49:11.222Z,100260.31
2023-04-15T22:51:40.129Z,100289.72
2023-04-15T22:54:08.787Z,100292.28
2023-04-15T22:56:37.588Z,100179.72
2023-04-15T22:59:06.448Z,100255.16
2023-04-15T23:01:35.283Z,100293.31
2023-04-15T23:04:05.853Z,100263.06
2023-04-15T23:06:38.709Z,100267.44
2023-04-15T23:09:07.783Z,100246.50
2023-04-15T23:11:36.713Z,100223.13
2023-04-15T23:14:05.469Z,100237.03
2023-04-15T23:16:34.221Z,100299.38
2023-04-15T23:19:03.091Z,100183.31
2023-04-15T23:21:31.994Z,100279.41
2023-04-15T23:24:00.673Z,100250.91
2023-04-15T23:26:29.497Z,100269.94
2023-04-15T23:28:58.632Z,100262.13
2023-04-15T23:31:27.297Z,100299.28
2023-04-15T23:33:56.008Z,100257.75
2023-04-15T23:36:24.795Z,100290.69
2023-04-15T23:38:53.697Z,100294.03
2023-04-15T23:41:22.647Z,100249.91
2023-04-15T23:43:51.350Z,100182.34
2023-04-15T23:46:20.316Z,100282.94
2023-04-15T23:48:49.756Z,100268.16
2023-04-15T23:51:18.550Z,100270.75
2023-04-15T23:53:47.626Z,100282.09
2023-04-15T23:56:16.914Z,100257.00
2023-04-15T23:58:46.511Z,100282.16
